createdAt,value
2018-09-14T00:01:42.084Z,65.69
2018-09-14T00:04:09.053Z,65.96
2018-09-14T00:06:36.049Z,65.90
2018-09-14T00:09:03.077Z,65.90
2018-09-14T00:11:30.045Z,65.74
2018-09-14T00:13:56.964Z,65.25
2018-09-14T00:16:23.929Z,64.91
2018-09-14T00:18:50.833Z,65.92
2018-09-14T00:21:17.765Z,65.98
2018-09-14T00:23:44.706Z,65.79
2018-09-14T00:26:11.637Z,65.61
2018-09-14T00:28:38.553Z,64.99
2018-09-14T00:31:05.521Z,65.63
2018-09-14T00:33:32.453Z,66.00
2018-09-14T00:35:59.386Z,64.88
2018-09-14T00:38:26.350Z,65.87
2018-09-14T00:40:53.315Z,65.74
2018-09-14T00:43:20.260Z,65.88
2018-09-14T00:45:47.211Z,65.37
2018-09-14T00:48:14.197Z,65.47
2018-09-14T00:50:41.212Z,65.23
2018-09-14T00:53:08.143Z,65.22
2018-09-14T00:55:35.099Z,65.70
2018-09-14T00:58:02.052Z,65.24
2018-09-14T01:00:29.165Z,65.68
2018-09-14T01:02:56.123Z,65.56
2018-09-14T01:05:23.106Z,65.93
2018-09-14T01:07:50.099Z,65.71
2018-09-14T01:10:17.094Z,65.56
2018-09-14T01:12:44.064Z,65.55
2018-09-14T01:15:11.047Z,64.82
2018-09-14T01:17:37.992Z,65.11
2018-09-14T01:20:04.930Z,65.57
2018-09-14T01:22:31.889Z,65.12
2018-09-14T01:24:58.807Z,65.00
2018-09-14T01:27:25.795Z,65.80
2018-09-14T01:29:52.794Z,65.68
2018-09-14T01:32:19.762Z,65.31
2018-09-14T01:34:46.713Z,65.35
2018-09-14T01:37:13.688Z,65.16
2018-09-14T01:39:40.678Z,64.85
2018-09-14T01:42:07.612Z,65.68
2018-09-14T01:44:34.585Z,64.81
2018-09-14T01:47:01.489Z,65.01
2018-09-14T01:49:28.422Z,65.56
2018-09-14T01:51:55.388Z,65.67
2018-09-14T01:54:22.345Z,65.40
2018-09-14T01:56:49.344Z,64.80
2018-09-14T01:59:16.256Z,65.71
2018-09-14T02:01:43.206Z,65.75
2018-09-14T02:04:10.129Z,65.39
2018-09-14T02:06:37.158Z,65.81
2018-09-14T02:09:04.568Z,65.23
2018-09-14T02:11:31.463Z,65.28
2018-09-14T02:13:58.419Z,65.81
2018-09-14T02:16:25.350Z,65.15
2018-09-14T02:18:52.285Z,64.92
2018-09-14T02:21:19.272Z,65.03
2018-09-14T02:23:46.215Z,65.42
2018-09-14T02:26:13.139Z,65.62
2018-09-14T02:28:40.100Z,65.75
2018-09-14T02:31:07.033Z,65.71
2018-09-14T02:33:33.995Z,65.51
2018-09-14T02:36:00.957Z,65.77
2018-09-14T02:38:27.913Z,65.78
2018-09-14T02:40:54.860Z,65.47
2018-09-14T02:43:21.874Z,65.09
2018-09-14T02:45:48.836Z,65.49
2018-09-14T02:48:15.873Z,64.80
2018-09-14T02:50:42.858Z,65.74
2018-09-14T02:53:09.852Z,65.56
2018-09-14T02:55:36.855Z,64.78
2018-09-14T02:58:03.833Z,65.07
2018-09-14T03:00:30.821Z,65.50
2018-09-14T03:02:57.807Z,64.72
2018-09-14T03:05:24.757Z,65.30
2018-09-14T03:07:51.728Z,65.06
2018-09-14T03:10:18.668Z,65.04
2018-09-14T03:12:45.634Z,65.43
2018-09-14T03:15:12.598Z,65.70
2018-09-14T03:17:39.547Z,65.37
2018-09-14T03:20:06.480Z,65.10
2018-09-14T03:22:33.441Z,65.62
2018-09-14T03:25:00.476Z,65.45
2018-09-14T03:29:54.239Z,64.89
2018-09-14T03:32:21.226Z,64.83
2018-09-14T03:34:48.253Z,65.55
2018-09-14T03:37:15.244Z,64.81
2018-09-14T03:39:42.208Z,65.40
2018-09-14T03:42:09.241Z,65.69
2018-09-14T03:44:36.274Z,65.05
2018-09-14T03:47:03.262Z,64.84
2018-09-14T03:49:30.229Z,65.51
2018-09-14T03:51:57.185Z,64.98
2018-09-14T03:54:24.211Z,65.66
2018-09-14T03:56:51.211Z,64.86
2018-09-14T03:59:18.170Z,65.36
2018-09-14T04:01:45.157Z,65.01
2018-09-14T04:04:12.082Z,64.79
2018-09-14T04:06:39.012Z,65.67
2018-09-14T04:09:05.976Z,65.20
2018-09-14T04:11:32.951Z,65.74
2018-09-14T04:13:59.881Z,65.40
2018-09-14T04:16:26.810Z,65.42
2018-09-14T04:18:59.211Z,65.05
2018-09-14T04:21:26.162Z,65.38
2018-09-14T04:23:53.078Z,65.52
2018-09-14T04:26:20.093Z,64.86
2018-09-14T04:28:47.520Z,65.60
2018-09-14T04:31:14.492Z,65.13
2018-09-14T04:33:41.478Z,65.49
2018-09-14T04:36:08.400Z,65.16
2018-09-14T04:38:35.363Z,64.94
2018-09-14T04:41:02.261Z,64.86
2018-09-14T04:43:29.178Z,65.01
2018-09-14T04:45:56.102Z,69.79
2018-09-14T04:48:23.040Z,71.12
2018-09-14T04:50:49.913Z,71.40
2018-09-14T04:53:16.832Z,72.27
2018-09-14T04:55:43.831Z,71.53
2018-09-14T04:58:10.721Z,72.00
2018-09-14T05:00:37.619Z,72.69
2018-09-14T05:03:04.539Z,72.17
2018-09-14T05:05:31.451Z,71.37
2018-09-14T05:07:58.355Z,72.28
2018-09-14T05:10:25.253Z,71.77
2018-09-14T05:12:52.154Z,68.82
2018-09-14T05:15:19.054Z,67.32
2018-09-14T05:17:45.988Z,66.85
2018-09-14T05:20:12.897Z,66.62
2018-09-14T05:22:39.799Z,66.92
2018-09-14T05:25:06.777Z,66.48
2018-09-14T05:27:33.617Z,66.53
2018-09-14T05:30:00.519Z,66.22
2018-09-14T05:32:27.426Z,66.46
2018-09-14T05:34:54.317Z,66.33
2018-09-14T05:37:21.211Z,66.45
2018-09-14T05:39:48.113Z,65.92
2018-09-14T05:42:15.010Z,66.33
2018-09-14T05:44:41.920Z,66.32
2018-09-14T05:47:08.823Z,65.59
2018-09-14T05:49:35.737Z,66.23
2018-09-14T05:52:02.679Z,66.38
2018-09-14T05:54:29.603Z,66.35
2018-09-14T05:56:56.517Z,66.15
2018-09-14T05:59:23.452Z,65.58
2018-09-14T06:01:50.336Z,66.14
2018-09-14T06:04:17.234Z,66.10
2018-09-14T06:06:44.186Z,66.01
2018-09-14T06:09:12.625Z,65.45
2018-09-14T06:11:39.598Z,66.11
2018-09-14T06:14:06.554Z,66.06
2018-09-14T06:16:33.605Z,65.62
2018-09-14T06:19:00.670Z,65.51
2018-09-14T06:21:27.639Z,65.97
2018-09-14T06:23:54.596Z,65.26
2018-09-14T06:26:21.607Z,66.17
2018-09-14T06:28:48.868Z,65.90
2018-09-14T06:31:15.798Z,65.21
2018-09-14T06:33:42.843Z,65.89
2018-09-14T06:36:09.820Z,65.60
2018-09-14T06:38:36.771Z,65.38
2018-09-14T06:41:03.709Z,65.98
2018-09-14T06:43:30.689Z,66.04
2018-09-14T06:45:57.701Z,66.06
2018-09-14T06:48:24.696Z,65.74
2018-09-14T06:50:51.738Z,66.00
2018-09-14T06:53:18.752Z,65.77
2018-09-14T06:55:45.726Z,65.19
2018-09-14T06:58:12.721Z,65.87
2018-09-14T07:00:39.712Z,65.36
2018-09-14T07:03:06.763Z,65.32
2018-09-14T07:05:33.743Z,66.03
2018-09-14T07:08:00.751Z,65.84
2018-09-14T07:10:27.698Z,65.65
2018-09-14T07:12:54.675Z,65.39
2018-09-14T07:15:21.889Z,65.99
2018-09-14T07:17:48.923Z,65.64
2018-09-14T07:20:15.913Z,65.73
2018-09-14T07:22:42.863Z,65.23
2018-09-14T07:25:10.031Z,65.46
2018-09-14T07:27:37.073Z,65.78
2018-09-14T07:30:04.024Z,65.33
2018-09-14T07:32:31.014Z,64.97
2018-09-14T07:34:57.998Z,65.59
2018-09-14T07:37:24.970Z,65.82
2018-09-14T07:39:51.976Z,65.65
2018-09-14T07:42:19.128Z,65.39
2018-09-14T07:44:46.141Z,65.46
2018-09-14T07:47:13.143Z,64.71
2018-09-14T07:49:40.162Z,64.87
2018-09-14T07:52:07.456Z,64.88
2018-09-14T07:54:34.450Z,64.73
2018-09-14T07:57:01.431Z,65.06
2018-09-14T07:59:28.445Z,65.10
2018-09-14T08:01:55.465Z,64.71
2018-09-14T08:04:22.476Z,64.81
2018-09-14T08:06:50.217Z,65.02
2018-09-14T08:09:17.259Z,64.73
2018-09-14T08:11:44.282Z,65.67
2018-09-14T08:14:12.086Z,64.90
2018-09-14T08:16:39.130Z,65.31
2018-09-14T08:19:06.689Z,64.56
2018-09-14T08:21:33.746Z,64.84
2018-09-14T08:24:00.779Z,65.40
2018-09-14T08:26:27.727Z,65.30
2018-09-14T08:28:54.635Z,64.87
2018-09-14T08:31:21.834Z,64.30
2018-09-14T08:33:48.740Z,63.91
2018-09-14T08:36:15.629Z,63.96
2018-09-14T08:38:42.533Z,64.11
2018-09-14T08:41:09.445Z,63.97
2018-09-14T08:43:36.332Z,64.21
2018-09-14T08:46:03.242Z,63.97
2018-09-14T08:48:30.138Z,63.70
2018-09-14T08:50:57.142Z,63.92
2018-09-14T08:53:24.038Z,63.21
2018-09-14T08:55:50.969Z,63.35
2018-09-14T08:58:17.882Z,63.07
2018-09-14T09:00:44.816Z,62.90
2018-09-14T09:03:11.720Z,65.74
2018-09-14T09:05:38.617Z,67.11
2018-09-14T09:08:05.551Z,68.99
2018-09-14T09:10:32.437Z,68.39
2018-09-14T09:12:59.341Z,70.15
2018-09-14T09:15:26.308Z,67.02
2018-09-14T09:17:53.250Z,69.10
2018-09-14T09:20:20.129Z,68.49
2018-09-14T09:22:47.061Z,66.94
2018-09-14T09:25:13.962Z,66.68
2018-09-14T09:27:40.889Z,66.14
2018-09-14T09:30:07.799Z,66.22
2018-09-14T09:32:34.693Z,64.43
2018-09-14T09:35:01.585Z,64.73
2018-09-14T09:37:28.529Z,64.74
2018-09-14T09:39:55.533Z,63.68
2018-09-14T09:42:22.426Z,63.16
2018-09-14T09:44:49.334Z,63.02
2018-09-14T09:47:16.230Z,63.54
2018-09-14T09:49:43.133Z,63.18
2018-09-14T09:52:10.026Z,63.77
2018-09-14T09:54:36.946Z,63.02
2018-09-14T09:57:03.852Z,62.65
2018-09-14T09:59:30.765Z,63.37
2018-09-14T10:02:03.025Z,62.86
2018-09-14T10:04:34.593Z,63.21
2018-09-14T10:07:01.494Z,63.28
2018-09-14T10:09:28.386Z,63.12
2018-09-14T10:11:55.272Z,62.92
2018-09-14T10:14:22.165Z,63.43
2018-09-14T10:16:49.058Z,63.75
2018-09-14T10:19:15.981Z,62.78
2018-09-14T10:21:42.886Z,62.73
2018-09-14T10:24:09.852Z,62.89
2018-09-14T10:26:36.741Z,62.48
2018-09-14T10:29:03.704Z,62.37
2018-09-14T10:31:30.524Z,62.66
2018-09-14T10:33:57.463Z,62.85
2018-09-14T10:36:24.337Z,63.14
2018-09-14T10:38:51.241Z,63.25
2018-09-14T10:41:18.145Z,62.26
2018-09-14T10:43:45.034Z,63.04
2018-09-14T10:46:11.917Z,62.17
2018-09-14T10:48:38.884Z,63.16
2018-09-14T10:51:05.728Z,62.41
2018-09-14T10:53:32.638Z,62.83
2018-09-14T10:55:59.589Z,62.79
2018-09-14T10:58:26.544Z,62.90
2018-09-14T11:00:53.583Z,62.97
2018-09-14T11:03:20.366Z,62.32
2018-09-14T11:05:47.253Z,62.54
2018-09-14T11:08:14.168Z,61.89
2018-09-14T11:10:41.070Z,62.27
2018-09-14T11:13:08.122Z,62.27
2018-09-14T11:15:34.917Z,62.36
2018-09-14T11:18:01.819Z,62.37
2018-09-14T11:20:29.141Z,61.82
2018-09-14T11:22:56.059Z,62.45
2018-09-14T11:25:23.182Z,62.02
2018-09-14T11:27:49.989Z,62.58
2018-09-14T11:30:16.872Z,62.50
2018-09-14T11:32:43.879Z,62.78
2018-09-14T11:35:10.857Z,62.96
2018-09-14T11:37:37.807Z,62.36
2018-09-14T11:40:04.810Z,62.54
2018-09-14T11:42:32.395Z,62.88
2018-09-14T11:44:59.621Z,62.49
2018-09-14T11:47:26.827Z,63.34
2018-09-14T11:49:53.879Z,63.40
2018-09-14T11:52:21.018Z,62.61
2018-09-14T11:54:47.981Z,62.78
2018-09-14T11:57:14.945Z,63.35
2018-09-14T11:59:41.889Z,62.90
2018-09-14T12:02:08.893Z,62.54
2018-09-14T12:04:35.824Z,62.38
2018-09-14T12:07:02.798Z,62.65
2018-09-14T12:09:29.809Z,62.38
2018-09-14T12:11:56.786Z,63.25
2018-09-14T12:14:23.763Z,63.13
2018-09-14T12:16:50.713Z,63.20
2018-09-14T12:19:17.656Z,62.50
2018-09-14T12:21:44.610Z,62.54
2018-09-14T12:24:11.725Z,63.05
2018-09-14T12:26:38.673Z,62.48
2018-09-14T12:29:05.670Z,62.81
2018-09-14T12:31:32.654Z,62.78
2018-09-14T12:33:59.630Z,62.59
2018-09-14T12:36:26.616Z,62.50
2018-09-14T12:38:53.635Z,62.98
2018-09-14T12:41:20.664Z,63.19
2018-09-14T12:43:47.679Z,63.52
2018-09-14T12:46:14.600Z,63.43
2018-09-14T12:48:41.618Z,63.14
2018-09-14T12:51:08.553Z,62.79
2018-09-14T12:53:35.691Z,63.44
2018-09-14T12:56:02.659Z,63.52
2018-09-14T12:58:29.609Z,64.05
2018-09-14T13:00:56.638Z,63.91
2018-09-14T13:03:23.630Z,63.66
2018-09-14T13:05:50.663Z,64.12
2018-09-14T13:08:17.734Z,59.83
2018-09-14T13:10:44.713Z,59.71
2018-09-14T13:13:11.648Z,59.11
2018-09-14T13:15:38.658Z,59.62
2018-09-14T13:18:05.642Z,60.73
2018-09-14T13:20:32.645Z,60.49
2018-09-14T13:22:59.637Z,60.88
2018-09-14T13:25:26.609Z,61.13
2018-09-14T13:27:53.578Z,61.48
2018-09-14T13:30:20.614Z,61.40
2018-09-14T13:32:51.213Z,60.99
2018-09-14T13:35:18.246Z,61.61
2018-09-14T13:37:45.196Z,61.20
2018-09-14T13:40:12.194Z,61.92
2018-09-14T13:42:39.154Z,61.39
2018-09-14T13:45:06.081Z,61.68
2018-09-14T13:47:33.057Z,61.42
2018-09-14T13:50:00.029Z,61.54
2018-09-14T13:52:27.004Z,61.48
2018-09-14T13:54:53.942Z,61.34
2018-09-14T13:57:20.870Z,61.72
2018-09-14T13:59:47.831Z,62.32
2018-09-14T14:02:14.782Z,62.07
2018-09-14T14:04:41.690Z,61.98
2018-09-14T14:07:08.634Z,62.10
2018-09-14T14:09:35.614Z,61.91
2018-09-14T14:12:02.539Z,61.55
2018-09-14T14:14:29.589Z,61.92
2018-09-14T14:16:56.571Z,62.21
2018-09-14T14:19:23.480Z,62.50
2018-09-14T14:21:50.421Z,62.38
2018-09-14T14:24:17.441Z,62.29
2018-09-14T14:26:44.361Z,62.05
2018-09-14T14:29:11.309Z,62.29
2018-09-14T14:31:38.244Z,61.55
2018-09-14T14:34:05.214Z,62.23
2018-09-14T14:36:32.164Z,61.76
2018-09-14T14:38:59.099Z,62.51
2018-09-14T14:41:26.062Z,61.79
2018-09-14T14:43:52.971Z,62.07
2018-09-14T14:46:19.929Z,62.04
2018-09-14T14:48:46.857Z,62.72
2018-09-14T14:51:13.817Z,62.06
2018-09-14T14:53:40.804Z,62.18
2018-09-14T14:56:07.706Z,62.80
2018-09-14T14:58:34.639Z,62.49
2018-09-14T15:01:01.562Z,62.29
2018-09-14T15:03:28.477Z,62.81
2018-09-14T15:05:55.373Z,62.90
2018-09-14T15:08:22.291Z,62.43
2018-09-14T15:10:49.284Z,63.09
2018-09-14T15:13:16.131Z,63.07
2018-09-14T15:15:43.025Z,63.41
2018-09-14T15:18:09.941Z,62.63
2018-09-14T15:20:36.836Z,62.94
2018-09-14T15:23:03.722Z,62.96
2018-09-14T15:25:30.825Z,63.03
2018-09-14T15:27:57.712Z,62.67
2018-09-14T15:30:24.626Z,62.57
2018-09-14T15:32:51.592Z,63.35
2018-09-14T15:35:18.524Z,62.92
2018-09-14T15:37:45.587Z,63.05
2018-09-14T15:40:12.479Z,62.66
2018-09-14T15:42:39.378Z,63.20
2018-09-14T15:45:06.269Z,63.04
2018-09-14T15:47:33.189Z,62.62
2018-09-14T15:50:00.114Z,62.65
2018-09-14T15:52:27.004Z,62.42
2018-09-14T15:54:54.173Z,63.29
2018-09-14T15:57:21.092Z,62.32
2018-09-14T15:59:48.011Z,62.21
2018-09-14T16:02:14.896Z,62.36
2018-09-14T16:04:41.814Z,63.25
2018-09-14T16:07:08.714Z,63.15
2018-09-14T16:09:35.609Z,62.53
2018-09-14T16:12:02.553Z,62.54
2018-09-14T16:14:29.452Z,62.93
2018-09-14T16:16:56.349Z,63.26
2018-09-14T16:19:23.241Z,62.66
2018-09-14T16:21:50.137Z,62.39
2018-09-14T16:24:17.095Z,63.25
2018-09-14T16:26:44.041Z,62.71
2018-09-14T16:29:10.924Z,63.35
2018-09-14T16:31:37.813Z,63.15
2018-09-14T16:34:04.703Z,63.15
2018-09-14T16:36:31.622Z,63.35
2018-09-14T16:38:58.526Z,62.55
2018-09-14T16:41:25.451Z,62.42
2018-09-14T16:43:52.345Z,63.00
2018-09-14T16:46:19.269Z,62.80
2018-09-14T16:48:46.189Z,63.40
2018-09-14T16:51:13.072Z,62.62
2018-09-14T16:53:39.982Z,62.71
2018-09-14T16:56:06.868Z,63.03
2018-09-14T16:58:33.774Z,62.67
2018-09-14T17:01:00.671Z,62.68
2018-09-14T17:03:27.660Z,62.85
2018-09-14T17:05:54.505Z,62.67
2018-09-14T17:08:21.384Z,62.93
2018-09-14T17:10:48.272Z,63.52
2018-09-14T17:13:15.276Z,62.66
2018-09-14T17:15:42.174Z,62.80
2018-09-14T17:18:09.187Z,62.67
2018-09-14T17:20:36.085Z,62.83
2018-09-14T17:23:03.034Z,62.83
2018-09-14T17:25:30.235Z,63.32
2018-09-14T17:27:57.140Z,63.44
2018-09-14T17:30:24.043Z,63.22
2018-09-14T17:32:50.941Z,63.18
2018-09-14T17:35:17.870Z,62.88
2018-09-14T17:37:44.757Z,63.17
2018-09-14T17:40:11.661Z,62.93
2018-09-14T17:42:38.557Z,62.82
2018-09-14T17:45:05.447Z,63.20
2018-09-14T17:47:32.354Z,63.42
2018-09-14T17:49:59.240Z,63.03
2018-09-14T17:52:26.129Z,63.25
2018-09-14T17:54:53.036Z,63.15
2018-09-14T17:57:20.011Z,62.60
2018-09-14T17:59:46.890Z,62.86
2018-09-14T18:02:13.803Z,62.79
2018-09-14T18:04:40.719Z,63.38
2018-09-14T18:07:07.624Z,63.34
2018-09-14T18:09:34.542Z,63.46
2018-09-14T18:12:01.432Z,63.62
2018-09-14T18:14:28.388Z,63.51
2018-09-14T18:16:55.244Z,63.01
2018-09-14T18:19:22.168Z,62.99
2018-09-14T18:21:49.074Z,63.77
2018-09-14T18:24:15.982Z,63.29
2018-09-14T18:26:42.869Z,63.22
2018-09-14T18:29:09.764Z,63.22
2018-09-14T18:31:36.670Z,63.82
2018-09-14T18:34:03.575Z,63.24
2018-09-14T18:36:30.474Z,63.69
2018-09-14T18:38:57.378Z,62.96
2018-09-14T18:41:24.412Z,63.68
2018-09-14T18:43:51.632Z,63.90
2018-09-14T18:46:18.610Z,63.94
2018-09-14T18:48:45.563Z,63.89
2018-09-14T18:51:12.498Z,62.98
2018-09-14T18:53:39.381Z,63.78
2018-09-14T18:56:06.309Z,63.74
2018-09-14T18:58:33.215Z,62.92
2018-09-14T19:01:00.127Z,63.45
2018-09-14T19:03:27.022Z,62.97
2018-09-14T19:05:53.978Z,63.22
2018-09-14T19:08:21.308Z,63.63
2018-09-14T19:10:48.228Z,63.57
2018-09-14T19:13:15.183Z,63.71
2018-09-14T19:15:42.059Z,64.22
2018-09-14T19:18:08.949Z,63.84
2018-09-14T19:20:35.832Z,64.46
2018-09-14T19:23:02.738Z,63.88
2018-09-14T19:25:29.645Z,64.08
2018-09-14T19:27:56.582Z,63.58
2018-09-14T19:30:23.471Z,63.71
2018-09-14T19:32:50.388Z,64.26
2018-09-14T19:35:17.272Z,64.09
2018-09-14T19:37:44.180Z,64.33
2018-09-14T19:40:11.073Z,63.71
2018-09-14T19:42:37.977Z,64.06
2018-09-14T19:45:04.879Z,63.59
2018-09-14T19:47:31.757Z,64.04
2018-09-14T19:49:58.713Z,64.33
2018-09-14T19:52:25.593Z,63.59
2018-09-14T19:54:52.516Z,63.96
2018-09-14T19:57:19.448Z,64.64
2018-09-14T19:59:46.412Z,64.06
2018-09-14T20:02:13.395Z,64.08
2018-09-14T20:04:40.391Z,64.36
2018-09-14T20:07:07.342Z,63.87
2018-09-14T20:09:34.496Z,64.44
2018-09-14T20:12:01.485Z,63.99
2018-09-14T20:14:28.453Z,64.81
2018-09-14T20:16:55.369Z,64.12
2018-09-14T20:19:22.338Z,64.24
2018-09-14T20:21:49.273Z,64.30
2018-09-14T20:24:16.173Z,64.49
2018-09-14T20:26:43.197Z,64.06
2018-09-14T20:29:10.199Z,64.63
2018-09-14T20:31:37.210Z,63.97
2018-09-14T20:34:04.159Z,64.57
2018-09-14T20:36:31.129Z,64.41
2018-09-14T20:38:58.083Z,64.55
2018-09-14T20:41:25.089Z,63.93
2018-09-14T20:43:52.041Z,63.83
2018-09-14T20:46:18.976Z,64.70
2018-09-14T20:48:46.038Z,64.47
2018-09-14T20:51:13.055Z,64.04
2018-09-14T20:53:40.014Z,64.29
2018-09-14T20:56:06.953Z,64.63
2018-09-14T20:58:33.918Z,63.74
2018-09-14T21:01:00.877Z,64.69
2018-09-14T21:03:27.907Z,64.07
2018-09-14T21:05:55.145Z,64.32
2018-09-14T21:08:22.068Z,63.89
2018-09-14T21:10:49.066Z,63.88
2018-09-14T21:13:16.055Z,64.00
2018-09-14T21:15:43.007Z,64.03
2018-09-14T21:18:09.949Z,64.37
2018-09-14T21:20:36.905Z,63.81
2018-09-14T21:23:03.858Z,63.98
2018-09-14T21:25:30.782Z,64.50
2018-09-14T21:27:57.694Z,64.59
2018-09-14T21:30:24.670Z,64.35
2018-09-14T21:32:51.638Z,64.25
2018-09-14T21:35:18.604Z,63.99
2018-09-14T21:37:45.517Z,64.77
2018-09-14T21:40:12.497Z,64.05
2018-09-14T21:42:39.421Z,64.14
2018-09-14T21:45:06.344Z,63.97
2018-09-14T21:47:33.303Z,64.51
2018-09-14T21:50:00.244Z,64.00
2018-09-14T21:52:27.160Z,64.00
2018-09-14T21:54:54.118Z,64.11
2018-09-14T21:57:21.153Z,64.50
2018-09-14T21:59:48.097Z,64.27
2018-09-14T22:02:15.081Z,64.72
2018-09-14T22:04:42.037Z,64.11
2018-09-14T22:07:09.125Z,64.37
2018-09-14T22:09:36.103Z,64.70
2018-09-14T22:12:03.034Z,64.15
2018-09-14T22:14:29.997Z,63.89
2018-09-14T22:16:56.914Z,63.89
2018-09-14T22:19:23.838Z,64.00
2018-09-14T22:21:50.923Z,64.66
2018-09-14T22:24:17.873Z,64.73
2018-09-14T22:26:44.829Z,63.96
2018-09-14T22:29:12.577Z,64.10
2018-09-14T22:31:39.531Z,64.33
2018-09-14T22:34:06.497Z,64.80
2018-09-14T22:36:33.486Z,63.88
2018-09-14T22:39:00.470Z,64.03
2018-09-14T22:41:28.222Z,63.96
2018-09-14T22:43:55.509Z,63.79
2018-09-14T22:46:22.457Z,63.96
2018-09-14T22:48:49.433Z,64.76
2018-09-14T22:51:16.371Z,64.02
2018-09-14T22:53:43.288Z,63.98
2018-09-14T22:56:10.291Z,63.98
2018-09-14T22:58:37.310Z,64.15
2018-09-14T23:01:09.486Z,64.10
2018-09-14T23:03:36.525Z,64.59
2018-09-14T23:06:03.508Z,63.95
2018-09-14T23:08:30.452Z,63.88
2018-09-14T23:10:57.395Z,63.82
2018-09-14T23:13:24.305Z,64.09
2018-09-14T23:15:56.512Z,64.77
2018-09-14T23:18:23.517Z,64.43
2018-09-14T23:20:50.456Z,64.62
2018-09-14T23:23:17.444Z,64.35
2018-09-14T23:25:44.417Z,64.19
2018-09-14T23:28:11.353Z,64.69
2018-09-14T23:30:38.314Z,64.30
2018-09-14T23:33:05.233Z,64.03
2018-09-14T23:35:32.157Z,64.53
2018-09-14T23:37:59.119Z,64.72
2018-09-14T23:40:26.042Z,63.97
2018-09-14T23:42:52.955Z,64.09
2018-09-14T23:45:19.963Z,64.43
2018-09-14T23:47:46.909Z,64.57
2018-09-14T23:50:13.863Z,64.51
2018-09-14T23:52:40.859Z,64.43
2018-09-14T23:55:07.777Z,64.75
2018-09-14T23:57:34.833Z,64.58
